Time;durP1;ratioP1;P1;durP2;ratioP2;P2;SDS_P1;SDS_P2;PMS_P1;PMS_P2;Temp;Humidity;BMP_temperature;BMP_pressure;BME280_temperature;BME280_humidity;BME280_pressure;Samples;Min_cycle;Max_cycle;Signal;HPM_P1;HPM_P2
2023/12/16 00:01:17;;;;;;;22.48;14.02;;;;;;;6.45;100.00;102744.81;5033750;28;20117;-71
2023/12/16 00:03:48;;;;;;;22.50;15.15;;;;;;;6.46;100.00;102739.50;5039902;28;20041;-71
2023/12/16 00:06:19;;;;;;;22.02;13.82;;;;;;;6.40;100.00;102723.69;5022559;28;20049;-71
2023/12/16 00:08:48;;;;;;;20.67;13.68;;;;;;;6.41;100.00;102730.72;5053938;28;20552;-74
2023/12/16 00:11:17;;;;;;;21.92;13.43;;;;;;;6.42;100.00;102732.50;5026416;28;20048;-71
2023/12/16 00:13:47;;;;;;;25.85;15.82;;;;;;;6.39;100.00;102737.72;5032940;28;20076;-72
2023/12/16 00:16:16;;;;;;;24.80;14.73;;;;;;;6.41;100.00;102749.16;5043572;28;20048;-72
2023/12/16 00:18:44;;;;;;;21.30;14.35;;;;;;;6.39;100.00;102740.34;5032927;28;20049;-72
2023/12/16 00:21:12;;;;;;;19.30;12.57;;;;;;;6.48;100.00;102744.78;5026942;28;20061;-71
2023/12/16 00:23:40;;;;;;;20.25;13.18;;;;;;;6.56;100.00;102753.66;5037505;28;20049;-73
2023/12/16 00:26:08;;;;;;;18.52;12.63;;;;;;;6.54;100.00;102748.38;5039936;28;20043;-72
2023/12/16 00:28:36;;;;;;;17.42;12.63;;;;;;;6.58;100.00;102758.06;5032066;28;20115;-72
2023/12/16 00:31:07;;;;;;;19.10;13.15;;;;;;;6.57;100.00;102751.03;5028422;28;20042;-72
2023/12/16 00:33:39;;;;;;;21.13;13.73;;;;;;;6.66;100.00;102756.34;5033931;28;20409;-73
2023/12/16 00:36:10;;;;;;;20.98;12.85;;;;;;;6.61;100.00;102752.78;5031106;28;20045;-73
2023/12/16 00:38:39;;;;;;;19.58;12.35;;;;;;;6.68;100.00;102767.75;5031680;28;20105;-71
2023/12/16 00:41:09;;;;;;;;;;;;;;;6.69;100.00;102772.16;5030438;28;20149;-71
2023/12/16 00:43:38;;;;;;;19.73;13.30;;;;;;;6.66;100.00;102773.88;5013401;28;19960;-72
2023/12/16 00:46:10;;;;;;;19.47;12.53;;;;;;;6.61;100.00;102773.84;5030984;28;20091;-72
2023/12/16 00:48:38;;;;;;;19.45;13.35;;;;;;;6.56;100.00;102765.06;5027184;28;20479;-72
2023/12/16 00:51:07;;;;;;;19.05;13.10;;;;;;;6.58;100.00;102765.94;4992095;28;20053;-71
2023/12/16 00:53:36;;;;;;;19.43;13.57;;;;;;;6.59;100.00;102762.44;5013533;28;20173;-73
2023/12/16 00:56:05;;;;;;;22.27;13.07;;;;;;;6.61;100.00;102757.19;5011769;28;20046;-72
2023/12/16 00:58:33;;;;;;;18.90;12.30;;;;;;;6.62;100.00;102762.44;5010055;28;20041;-72
2023/12/16 01:01:02;;;;;;;18.83;12.68;;;;;;;6.67;100.00;102763.38;5029151;28;20046;-72
2023/12/16 01:03:32;;;;;;;23.50;12.95;;;;;;;6.67;100.00;102754.59;5024766;28;20037;-72
2023/12/16 01:06:01;;;;;;;17.50;12.38;;;;;;;6.75;100.00;102763.44;5028578;28;20083;-72
2023/12/16 01:08:29;;;;;;;18.52;13.02;;;;;;;6.74;100.00;102763.44;5031343;28;20057;-73
2023/12/16 01:10:59;;;;;;;20.55;13.32;;;;;;;6.68;100.00;102748.47;5038617;28;20042;-72
2023/12/16 01:13:27;;;;;;;20.05;12.70;;;;;;;6.82;100.00;102764.34;5023851;28;20041;-71
2023/12/16 01:15:56;;;;;;;19.33;12.75;;;;;;;6.80;100.00;102764.31;5003672;28;20045;-71
2023/12/16 01:18:24;;;;;;;20.05;12.32;;;;;;;6.85;100.00;102780.16;5032761;28;20053;-72
2023/12/16 01:20:53;;;;;;;17.90;12.35;;;;;;;6.83;100.00;102781.91;5024996;28;20465;-71
2023/12/16 01:23:23;;;;;;;18.25;12.85;;;;;;;6.80;100.00;102781.88;5027052;28;20045;-72
2023/12/16 01:25:52;;;;;;;22.33;13.25;;;;;;;6.74;100.00;102788.00;5033106;28;20053;-72
2023/12/16 01:28:22;;;;;;;20.30;12.75;;;;;;;6.68;100.00;102786.19;5047841;28;20135;-72
2023/12/16 01:30:52;;;;;;;24.05;12.75;;;;;;;6.71;100.00;102792.38;5028785;28;20038;-72
2023/12/16 01:33:21;;;;;;;20.23;13.45;;;;;;;6.71;100.00;102787.09;5029595;28;20095;-72
2023/12/16 01:35:49;;;;;;;20.15;13.00;;;;;;;6.72;100.00;102792.38;5031953;28;20121;-71
2023/12/16 01:38:19;;;;;;;22.52;13.07;;;;;;;6.64;100.00;102783.53;5016052;28;20056;-72
2023/12/16 01:40:48;;;;;;;22.88;12.73;;;;;;;6.60;100.00;102793.19;5030537;28;20056;-71
2023/12/16 01:43:19;;;;;;;16.95;12.05;;;;;;;6.53;100.00;102786.09;5026639;28;20128;-72
2023/12/16 01:45:53;;;;;;;20.95;13.35;;;;;;;6.55;100.00;102791.38;5035490;28;20045;-72
2023/12/16 01:48:21;;;;;;;16.92;12.00;;;;;;;6.59;100.00;102787.91;5035164;28;20278;-72
2023/12/16 01:50:50;;;;;;;18.88;12.52;;;;;;;6.65;100.00;102777.38;5001663;28;20064;-72
2023/12/16 01:53:23;;;;;;;17.02;12.35;;;;;;;6.68;100.00;102777.41;5023402;28;20403;-72
2023/12/16 01:55:51;;;;;;;22.10;13.05;;;;;;;6.68;100.00;102772.16;5034317;28;20057;-72
2023/12/16 01:58:20;;;;;;;20.83;13.20;;;;;;;6.70;100.00;102770.41;5031067;28;20045;-72
2023/12/16 02:00:52;;;;;;;19.30;13.13;;;;;;;6.69;100.00;102769.53;5030840;28;20052;-71
2023/12/16 02:03:24;;;;;;;19.40;12.43;;;;;;;6.72;100.00;102770.44;5011299;28;20049;-72
2023/12/16 02:05:53;;;;;;;19.58;12.55;;;;;;;6.76;100.00;102785.38;5044709;28;20056;-71
2023/12/16 02:08:22;;;;;;;18.85;11.68;;;;;;;6.81;100.00;102788.91;5043018;28;20042;-72
2023/12/16 02:10:52;;;;;;;18.02;12.20;;;;;;;6.82;100.00;102796.81;5036965;28;20053;-73
2023/12/16 02:13:23;;;;;;;20.10;12.20;;;;;;;6.77;100.00;102787.16;5031571;28;20112;-73
2023/12/16 02:15:51;;;;;;;19.90;11.45;;;;;;;6.81;100.00;102789.78;5038994;28;20324;-72
2023/12/16 02:18:20;;;;;;;19.20;12.48;;;;;;;6.80;100.00;102795.03;5021476;28;20041;-74
2023/12/16 02:20:48;;;;;;;19.35;12.32;;;;;;;6.77;100.00;102801.16;5035895;28;20044;-72
2023/12/16 02:23:20;;;;;;;21.45;12.25;;;;;;;6.72;100.00;102804.66;5029740;28;20316;-72
2023/12/16 02:25:49;;;;;;;18.05;11.20;;;;;;;6.73;100.00;102803.78;5037964;28;20052;-72
2023/12/16 02:28:17;;;;;;;19.70;11.68;;;;;;;6.71;100.00;102803.78;5037467;28;20057;-71
2023/12/16 02:30:47;;;;;;;19.48;11.38;;;;;;;6.63;100.00;102803.69;5004917;28;20052;-71
2023/12/16 02:33:17;;;;;;;18.27;11.47;;;;;;;6.69;100.00;102798.50;5033096;28;20037;-72
2023/12/16 02:35:46;;;;;;;21.83;12.60;;;;;;;6.79;100.00;102806.44;5035042;28;20045;-71
2023/12/16 02:38:16;;;;;;;20.50;12.50;;;;;;;6.87;100.00;102805.66;5039231;28;20049;-72
2023/12/16 02:40:47;;;;;;;16.25;12.10;;;;;;;6.89;100.00;102800.41;5036743;28;20081;-73
2023/12/16 02:43:17;;;;;;;20.67;11.73;;;;;;;6.89;100.00;102798.63;5030340;28;20045;-71
2023/12/16 02:45:45;;;;;;;18.73;12.23;;;;;;;6.88;100.00;102799.50;5021947;28;20493;-72
2023/12/16 02:48:16;;;;;;;22.00;12.48;;;;;;;6.88;100.00;102796.00;5040063;28;20068;-72
2023/12/16 02:50:47;;;;;;;17.15;12.43;;;;;;;6.84;100.00;102788.94;5054750;28;20045;-74
2023/12/16 02:53:15;;;;;;;22.15;13.10;;;;;;;6.66;100.00;102794.94;5021326;28;20041;-73
2023/12/16 02:55:44;;;;;;;22.33;13.10;;;;;;;6.54;100.00;102798.38;5057268;28;20128;-72
2023/12/16 02:58:16;;;;;;;24.65;13.45;;;;;;;6.43;100.00;102793.91;5046589;28;20030;-72
2023/12/16 03:00:45;;;;;;;21.08;13.10;;;;;;;6.34;100.00;102785.06;5039184;28;20045;-72
2023/12/16 03:03:14;;;;;;;21.70;12.90;;;;;;;6.38;100.00;102790.34;5035598;28;20104;-72
2023/12/16 03:05:44;;;;;;;23.92;12.00;;;;;;;6.38;100.00;102785.97;5034940;28;20076;-72
2023/12/16 03:08:12;;;;;;;22.23;12.73;;;;;;;6.37;100.00;102784.19;5025126;28;20046;-73
2023/12/16 03:10:41;;;;;;;21.63;12.93;;;;;;;6.28;100.00;102776.25;5033978;28;20139;-71
2023/12/16 03:13:09;;;;;;;18.70;12.43;;;;;;;6.29;100.00;102785.91;5027357;28;20038;-72
2023/12/16 03:15:41;;;;;;;19.20;12.40;;;;;;;6.27;100.00;102771.84;5015823;28;20037;-73
2023/12/16 03:18:09;;;;;;;21.23;13.00;;;;;;;6.37;100.00;102778.94;5031030;28;20473;-72
2023/12/16 03:20:40;;;;;;;19.58;12.68;;;;;;;6.38;100.00;102772.81;5031376;28;20049;-72
2023/12/16 03:23:08;;;;;;;22.08;12.68;;;;;;;6.41;100.00;102783.38;5023190;28;20131;-73
2023/12/16 03:25:39;;;;;;;20.42;13.43;;;;;;;6.34;100.00;102785.06;5032986;28;20128;-72
2023/12/16 03:28:07;;;;;;;21.58;13.07;;;;;;;6.29;100.00;102784.16;5031395;28;20502;-73
2023/12/16 03:30:41;;;;;;;21.25;12.70;;;;;;;6.18;100.00;102784.91;5039230;28;20049;-72
2023/12/16 03:33:09;;;;;;;24.15;13.93;;;;;;;6.14;100.00;102788.38;5046360;28;20501;-72
2023/12/16 03:35:39;;;;;;;24.42;14.35;;;;;;;6.12;100.00;102790.13;5049365;28;20041;-70
2023/12/16 03:38:08;;;;;;;27.77;14.80;;;;;;;6.10;100.00;102794.47;5051941;28;20048;-69
2023/12/16 03:40:35;;;;;;;20.75;14.27;;;;;;;6.06;100.00;102796.19;5043969;28;20065;-70
2023/12/16 03:43:04;;;;;;;21.23;12.77;;;;;;;6.04;100.00;102791.78;5040985;28;20045;-72
2023/12/16 03:45:33;;;;;;;22.48;13.05;;;;;;;6.11;100.00;102793.63;5039553;28;20042;-71
2023/12/16 03:48:04;;;;;;;20.13;13.43;;;;;;;6.15;100.00;102787.50;5005598;28;20434;-72
2023/12/16 03:50:36;;;;;;;21.75;13.52;;;;;;;6.08;100.00;102772.53;5035080;28;20114;-72
2023/12/16 03:53:06;;;;;;;21.95;13.60;;;;;;;6.10;100.00;102783.97;5026947;28;20626;-72
2023/12/16 03:55:34;;;;;;;21.15;13.50;;;;;;;6.06;100.00;102788.31;5030902;28;20037;-72
2023/12/16 03:58:06;;;;;;;20.05;13.48;;;;;;;5.99;100.00;102787.34;5033783;28;20042;-72
2023/12/16 04:00:35;;;;;;;21.02;13.48;;;;;;;5.99;100.00;102783.84;5033352;28;20111;-71
2023/12/16 04:03:05;;;;;;;22.80;14.23;;;;;;;6.03;100.00;102798.78;5011212;28;20048;-71
2023/12/16 04:05:36;;;;;;;24.42;13.55;;;;;;;6.01;100.00;102791.75;5016953;28;20054;-72
2023/12/16 04:08:04;;;;;;;24.75;14.63;;;;;;;6.01;100.00;102787.38;5047751;28;20559;-73
2023/12/16 04:10:32;;;;;;;23.42;14.05;;;;;;;5.98;100.00;102777.69;5034550;28;20508;-71
2023/12/16 04:13:02;;;;;;;21.13;13.38;;;;;;;6.02;100.00;102786.50;5010433;28;20188;-72
2023/12/16 04:15:32;;;;;;;22.95;12.80;;;;;;;5.98;100.00;102793.47;5050523;28;20156;-71
2023/12/16 04:18:04;;;;;;;22.85;12.32;;;;;;;5.99;100.00;102794.34;5037368;28;20327;-73
2023/12/16 04:20:33;;;;;;;20.70;13.00;;;;;;;6.02;100.00;102794.38;5018256;28;20046;-73
2023/12/16 04:23:01;;;;;;;20.83;12.65;;;;;;;5.97;100.00;102786.47;5010312;28;20498;-71
2023/12/16 04:25:29;;;;;;;18.88;12.20;;;;;;;6.03;100.00;102790.00;5038569;28;20049;-72
2023/12/16 04:27:58;;;;;;;19.60;12.48;;;;;;;5.98;100.00;102796.09;5023034;28;20057;-72
2023/12/16 04:30:27;;;;;;;22.08;12.63;;;;;;;5.89;100.00;102776.72;5038424;28;20053;-72
2023/12/16 04:32:55;;;;;;;19.55;11.98;;;;;;;6.00;100.00;102798.75;5027452;28;20064;-72
2023/12/16 04:35:25;;;;;;;21.05;12.05;;;;;;;6.02;100.00;102804.03;5031693;28;20057;-72
2023/12/16 04:37:54;;;;;;;23.45;13.15;;;;;;;5.98;100.00;102800.50;5036422;28;20095;-73
2023/12/16 04:40:23;;;;;;;20.00;12.43;;;;;;;5.94;100.00;102806.59;5040967;28;20064;-70
2023/12/16 04:42:51;;;;;;;22.05;12.48;;;;;;;5.93;100.00;102808.34;5011394;28;20056;-71
2023/12/16 04:45:21;;;;;;;16.77;11.73;;;;;;;5.92;100.00;102795.19;5037397;28;20044;-70
2023/12/16 04:47:50;;;;;;;20.20;12.10;;;;;;;5.97;100.00;102790.84;5046434;28;20053;-72
2023/12/16 04:50:18;;;;;;;17.20;12.50;;;;;;;6.00;100.00;102785.59;5008073;28;20050;-71
2023/12/16 04:52:48;;;;;;;18.88;12.00;;;;;;;6.13;100.00;102802.41;5040730;28;20566;-71
2023/12/16 04:55:16;;;;;;;20.30;11.93;;;;;;;6.22;100.00;102798.09;5038006;28;20048;-72
2023/12/16 04:57:45;;;;;;;18.75;11.57;;;;;;;6.30;100.00;102806.06;5036676;28;20072;-72
2023/12/16 05:00:15;;;;;;;19.60;11.48;;;;;;;6.28;100.00;102802.56;5034210;28;20052;-71
2023/12/16 05:02:43;;;;;;;19.38;11.07;;;;;;;6.23;100.00;102810.41;5036449;28;20056;-72
2023/12/16 05:05:12;;;;;;;18.65;11.25;;;;;;;6.27;100.00;102806.94;5054778;28;20112;-71
2023/12/16 05:07:40;;;;;;;19.00;10.77;;;;;;;6.27;100.00;102803.41;5044926;28;20056;-72
2023/12/16 05:10:11;;;;;;;21.08;11.55;;;;;;;6.34;100.00;102810.47;5042656;28;20068;-70
2023/12/16 05:12:42;;;;;;;16.85;10.48;;;;;;;6.37;100.00;102812.25;5034770;28;20232;-73
2023/12/16 05:15:11;;;;;;;21.55;11.48;;;;;;;6.34;100.00;102808.72;5033103;28;20033;-71
2023/12/16 05:17:39;;;;;;;19.90;12.27;;;;;;;6.34;100.00;102816.63;5038298;28;20052;-72
2023/12/16 05:20:11;;;;;;;19.48;10.82;;;;;;;6.32;100.00;102815.72;5035256;28;20107;-71
2023/12/16 05:22:39;;;;;;;19.67;11.52;;;;;;;6.36;100.00;102811.38;5017891;28;20041;-72
2023/12/16 05:25:08;;;;;;;20.60;11.50;;;;;;;6.39;100.00;102805.28;5032472;28;20069;-71
2023/12/16 05:27:37;;;;;;;19.05;10.88;;;;;;;6.22;100.00;102777.06;5037407;28;20050;-71
2023/12/16 05:30:07;;;;;;;19.33;11.15;;;;;;;6.42;100.00;102816.72;5034702;28;20140;-71
2023/12/16 05:32:38;;;;;;;20.50;11.10;;;;;;;6.36;100.00;102826.28;5014768;28;20049;-71
2023/12/16 05:35:08;;;;;;;18.55;11.48;;;;;;;6.37;100.00;102826.31;5028739;28;20539;-71
2023/12/16 05:37:36;;;;;;;17.70;10.65;;;;;;;6.40;100.00;102834.22;5032916;28;20053;-72
2023/12/16 05:40:06;;;;;;;19.02;11.00;;;;;;;6.42;100.00;102829.00;5041790;28;20636;-73
2023/12/16 05:42:38;;;;;;;20.05;12.45;;;;;;;6.46;100.00;102833.38;5037672;28;20037;-71
2023/12/16 05:45:06;;;;;;;13.88;9.10;;;;;;;6.48;100.00;102829.91;5031780;28;20045;-71
2023/12/16 05:47:36;;;;;;;16.35;10.63;;;;;;;6.46;100.00;102826.38;5022111;28;20054;-71
2023/12/16 05:50:08;;;;;;;19.40;11.35;;;;;;;6.50;100.00;102824.66;5022034;28;20100;-71
2023/12/16 05:52:37;;;;;;;20.30;11.65;;;;;;;6.46;100.00;102829.00;5035913;28;20064;-71
2023/12/16 05:55:05;;;;;;;18.33;11.30;;;;;;;6.49;100.00;102834.31;5035876;28;20041;-72
2023/12/16 05:57:35;;;;;;;16.98;10.63;;;;;;;6.53;100.00;102840.47;5034134;28;20049;-72
2023/12/16 06:00:08;;;;;;;17.88;10.88;;;;;;;6.50;100.00;102840.44;5038490;28;20053;-71
2023/12/16 06:02:38;;;;;;;18.38;11.52;;;;;;;6.47;100.00;102843.94;5023845;28;20670;-71
2023/12/16 06:05:09;;;;;;;22.25;11.75;;;;;;;6.49;100.00;102843.94;5019915;28;20045;-72
2023/12/16 06:07:37;;;;;;;20.17;11.55;;;;;;;6.43;100.00;102838.66;5035572;28;20230;-72
2023/12/16 06:10:06;;;;;;;21.88;11.85;;;;;;;6.33;100.00;102837.66;5042530;28;20224;-72
2023/12/16 06:12:40;;;;;;;18.07;11.67;;;;;;;6.29;100.00;102843.78;5038942;28;20046;-72
2023/12/16 06:15:12;;;;;;;21.48;12.57;;;;;;;6.15;100.00;102833.09;5036533;28;20101;-72
2023/12/16 06:17:40;;;;;;;17.52;11.73;;;;;;;6.20;100.00;102835.78;5045019;28;20049;-72
2023/12/16 06:20:09;;;;;;;16.85;11.15;;;;;;;6.24;100.00;102837.59;5052353;28;20071;-72
2023/12/16 06:22:37;;;;;;;19.50;11.93;;;;;;;6.28;100.00;102834.13;5007583;28;20675;-71
2023/12/16 06:25:09;;;;;;;21.90;12.27;;;;;;;6.21;100.00;102835.81;5034038;28;20473;-71
2023/12/16 06:27:40;;;;;;;23.00;12.00;;;;;;;6.23;100.00;102833.19;5044216;28;20056;-71
2023/12/16 06:30:12;;;;;;;20.35;11.80;;;;;;;6.27;100.00;102841.13;5043771;28;20044;-71
2023/12/16 06:32:41;;;;;;;20.27;11.88;;;;;;;6.33;100.00;102832.41;5044236;28;20068;-71
2023/12/16 06:35:11;;;;;;;19.38;11.95;;;;;;;6.33;100.00;102829.75;5045782;28;20048;-70
2023/12/16 06:37:39;;;;;;;19.17;11.75;;;;;;;6.31;100.00;102828.88;5037539;28;20839;-70
2023/12/16 06:40:09;;;;;;;19.33;12.25;;;;;;;6.33;100.00;102837.66;5051439;28;20048;-71
2023/12/16 06:42:37;;;;;;;20.90;11.85;;;;;;;6.28;100.00;102840.28;5048394;28;20064;-70
2023/12/16 06:45:11;;;;;;;22.15;11.90;;;;;;;6.28;100.00;102844.66;5037571;28;20041;-70
2023/12/16 06:47:40;;;;;;;21.05;12.38;;;;;;;6.26;100.00;102841.13;5052436;28;20030;-70
2023/12/16 06:50:09;;;;;;;20.67;11.35;;;;;;;6.22;100.00;102840.19;5049169;28;20048;-70
2023/12/16 06:52:37;;;;;;;22.45;12.20;;;;;;;6.23;100.00;102855.13;5033636;28;20653;-70
2023/12/16 06:55:07;;;;;;;22.88;12.02;;;;;;;6.19;100.00;102861.22;5024483;28;20080;-70
2023/12/16 06:57:35;;;;;;;16.65;11.63;;;;;;;6.17;100.00;102862.06;5034186;28;20056;-71
2023/12/16 07:00:06;;;;;;;23.02;12.35;;;;;;;6.15;100.00;102869.03;5013864;28;20173;-70
2023/12/16 07:02:41;;;;;;;18.90;11.57;;;;;;;6.15;100.00;102879.56;5033443;28;20079;-71
2023/12/16 07:05:11;;;;;;;19.55;12.18;;;;;;;6.11;100.00;102878.69;5029763;28;20046;-72
2023/12/16 07:07:39;;;;;;;20.73;11.93;;;;;;;6.05;100.00;102889.13;5039970;28;20116;-71
2023/12/16 07:10:15;;;;;;;18.17;11.63;;;;;;;6.00;100.00;102888.19;5037073;28;20108;-72
2023/12/16 07:12:44;;;;;;;23.42;11.55;;;;;;;6.05;100.00;102898.75;5036843;28;20045;-71
2023/12/16 07:15:13;;;;;;;17.80;11.60;;;;;;;6.07;100.00;102887.41;5031318;28;20040;-73
2023/12/16 07:17:43;;;;;;;22.30;12.02;;;;;;;6.10;100.00;102886.56;5035554;28;20053;-72
2023/12/16 07:20:17;;;;;;;18.63;11.75;;;;;;;6.12;100.00;102887.47;5037656;28;20080;-72
2023/12/16 07:22:45;;;;;;;19.48;11.25;;;;;;;6.15;100.00;102890.97;5035965;28;20046;-73
2023/12/16 07:25:15;;;;;;;17.77;11.65;;;;;;;6.19;100.00;102891.91;5022078;28;20057;-73
2023/12/16 07:27:43;;;;;;;16.25;10.50;;;;;;;6.21;100.00;102884.91;5032419;28;20072;-72
2023/12/16 07:30:12;;;;;;;18.02;10.70;;;;;;;6.24;100.00;102877.06;5039097;28;20037;-73
2023/12/16 07:32:45;;;;;;;17.65;10.75;;;;;;;6.30;100.00;102885.00;5040093;28;20051;-73
2023/12/16 07:35:17;;;;;;;18.38;10.52;;;;;;;6.30;100.00;102888.50;5028440;28;20049;-73
2023/12/16 07:37:45;;;;;;;17.80;10.57;;;;;;;6.27;100.00;102892.88;5043402;28;20073;-73
2023/12/16 07:40:15;;;;;;;15.05;10.23;;;;;;;6.18;100.00;102895.41;5043773;28;20049;-72
2023/12/16 07:42:45;;;;;;;19.42;10.70;;;;;;;6.17;100.00;102898.88;5042737;28;20084;-73
2023/12/16 07:45:13;;;;;;;20.27;11.05;;;;;;;6.16;100.00;102899.75;5037451;28;20053;-72
2023/12/16 07:47:43;;;;;;;19.20;11.07;;;;;;;6.07;100.00;102894.41;5037398;28;20046;-71
2023/12/16 07:50:16;;;;;;;17.13;11.23;;;;;;;6.14;100.00;102904.16;5043801;28;20113;-71
2023/12/16 07:52:46;;;;;;;20.00;10.07;;;;;;;6.18;100.00;102906.81;5048448;28;20113;-72
2023/12/16 07:55:16;;;;;;;21.00;10.65;;;;;;;6.17;100.00;102898.88;5040141;28;20043;-71
2023/12/16 07:57:48;;;;;;;20.73;11.20;;;;;;;6.19;100.00;102905.06;5052849;28;20045;-72
2023/12/16 08:00:19;;;;;;;20.50;10.82;;;;;;;6.22;100.00;102918.25;5044081;28;20754;-73
2023/12/16 08:02:50;;;;;;;;;;;;;;;6.25;100.00;102921.81;5022166;28;20049;-72
2023/12/16 08:05:19;;;;;;;20.17;10.85;;;;;;;6.25;100.00;102927.06;5050073;28;19960;-71
2023/12/16 08:07:49;;;;;;;21.13;11.65;;;;;;;6.24;100.00;102916.53;5044984;28;20048;-73
2023/12/16 08:10:19;;;;;;;22.67;11.70;;;;;;;6.25;100.00;102918.28;5044250;28;20117;-71
2023/12/16 08:12:49;;;;;;;19.58;11.02;;;;;;;6.24;100.00;102933.19;5019904;28;20049;-72
2023/12/16 08:15:18;;;;;;;21.20;11.52;;;;;;;6.21;100.00;102927.91;5034731;28;20045;-72
2023/12/16 08:17:50;;;;;;;20.25;11.65;;;;;;;6.20;100.00;102933.13;5038524;28;20191;-72
2023/12/16 08:20:19;;;;;;;19.95;11.68;;;;;;;6.19;100.00;102931.38;5052513;28;20053;-71
2023/12/16 08:22:47;;;;;;;20.20;11.80;;;;;;;6.10;100.00;102918.13;5029604;28;20066;-71
2023/12/16 08:25:18;;;;;;;17.38;11.35;;;;;;;6.25;100.00;102934.97;5036499;28;20112;-73
2023/12/16 08:27:50;;;;;;;14.07;10.32;;;;;;;6.27;100.00;102938.50;5041347;28;20049;-71
2023/12/16 08:30:22;;;;;;;21.17;12.00;;;;;;;6.40;100.00;102938.63;5045225;28;20037;-70
2023/12/16 08:32:56;;;;;;;21.23;11.18;;;;;;;6.54;100.00;102937.00;5051276;28;20053;-73
2023/12/16 08:35:25;;;;;;;21.15;11.65;;;;;;;6.56;100.00;102920.38;5041127;28;20045;-71
2023/12/16 08:37:55;;;;;;;17.20;10.50;;;;;;;6.75;100.00;102939.00;5040696;28;20045;-71
2023/12/16 08:40:23;;;;;;;20.83;11.43;;;;;;;6.72;100.00;102929.31;5060284;28;20064;-71
2023/12/16 08:42:51;;;;;;;18.98;11.68;;;;;;;6.87;100.00;102949.63;5044708;28;20077;-72
2023/12/16 08:45:21;;;;;;;20.17;10.60;;;;;;;6.79;100.00;102939.00;5022775;28;20056;-72
2023/12/16 08:47:49;;;;;;;18.48;10.30;;;;;;;6.75;100.00;102952.16;5026436;28;20046;-72
2023/12/16 08:50:19;;;;;;;18.08;10.52;;;;;;;6.74;100.00;102956.53;5033058;28;20052;-72
2023/12/16 08:52:47;;;;;;;19.55;11.05;;;;;;;6.79;100.00;102959.19;5030747;28;20049;-73
2023/12/16 08:55:21;;;;;;;18.58;10.25;;;;;;;6.75;100.00;102946.88;5017211;28;20040;-72
2023/12/16 08:57:51;;;;;;;19.92;10.60;;;;;;;6.81;100.00;102966.25;5040504;28;20364;-72
2023/12/16 09:00:21;;;;;;;18.40;10.20;;;;;;;6.90;100.00;102962.81;5031284;28;20113;-73
2023/12/16 09:02:49;;;;;;;17.80;11.10;;;;;;;7.00;100.00;102965.53;5037597;28;20513;-73
2023/12/16 09:05:21;;;;;;;18.20;11.25;;;;;;;7.09;100.00;102963.84;5029044;28;20081;-73
2023/12/16 09:07:49;;;;;;;19.60;11.30;;;;;;;7.13;100.00;102966.53;5033501;28;20157;-72
2023/12/16 09:10:19;;;;;;;18.48;11.15;;;;;;;7.18;100.00;102969.22;4994507;28;20057;-74
2023/12/16 09:12:47;;;;;;;20.35;10.93;;;;;;;7.16;100.00;102963.03;5027549;28;20083;-72
2023/12/16 09:15:17;;;;;;;17.55;10.73;;;;;;;7.24;100.00;102972.75;5041064;28;20132;-73
2023/12/16 09:17:47;;;;;;;21.45;11.18;;;;;;;7.17;100.00;102977.97;5034802;28;20037;-71
2023/12/16 09:20:15;;;;;;;16.88;10.57;;;;;;;7.12;100.00;102975.31;5034695;28;20042;-71
2023/12/16 09:22:45;;;;;;;24.58;11.82;;;;;;;7.15;100.00;102975.34;5031670;28;20494;-73
2023/12/16 09:25:14;;;;;;;22.17;12.43;;;;;;;7.13;100.00;102976.19;5034278;28;20064;-73
2023/12/16 09:27:43;;;;;;;20.05;11.75;;;;;;;7.14;100.00;102978.84;5036649;28;20521;-73
2023/12/16 09:30:14;;;;;;;20.90;11.95;;;;;;;7.13;100.00;102971.78;5039634;28;20407;-72
2023/12/16 09:32:43;;;;;;;18.80;11.40;;;;;;;7.21;100.00;102977.16;5034262;28;20085;-72
2023/12/16 09:35:13;;;;;;;21.25;11.02;;;;;;;7.22;100.00;102971.00;5028149;28;21006;-71
2023/12/16 09:37:41;;;;;;;20.65;12.13;;;;;;;7.21;100.00;102980.66;5005749;28;21026;-71
2023/12/16 09:40:13;;;;;;;21.77;12.23;;;;;;;7.13;100.00;102979.69;5028832;28;20054;-72
2023/12/16 09:42:44;;;;;;;20.80;11.77;;;;;;;7.12;100.00;102984.94;5030829;28;20045;-71
2023/12/16 09:45:15;;;;;;;19.98;12.10;;;;;;;7.20;100.00;102984.16;5025669;28;20041;-72
2023/12/16 09:47:44;;;;;;;19.60;11.30;;;;;;;7.28;100.00;102977.19;5034717;28;20045;-71
2023/12/16 09:50:12;;;;;;;19.73;11.70;;;;;;;7.34;100.00;102971.97;5033678;28;20076;-72
2023/12/16 09:52:40;;;;;;;18.50;11.15;;;;;;;7.44;100.00;102970.28;5023030;28;20058;-72
2023/12/16 09:55:09;;;;;;;19.65;11.73;;;;;;;7.52;100.00;102973.88;5022706;28;20052;-72
2023/12/16 09:57:40;;;;;;;16.90;10.77;;;;;;;7.64;100.00;102967.78;5028995;28;20142;-71
2023/12/16 10:00:12;;;;;;;18.20;9.98;;;;;;;7.71;100.00;102962.53;5032768;28;20037;-72
2023/12/16 10:02:45;;;;;;;17.20;9.90;;;;;;;7.81;100.00;102966.13;5036308;28;20041;-72
2023/12/16 10:05:15;;;;;;;16.90;10.02;;;;;;;7.86;100.00;102966.16;5026426;28;20065;-72
2023/12/16 10:07:44;;;;;;;16.83;9.02;;;;;;;7.81;100.00;102966.13;5032440;28;20064;-73
2023/12/16 10:10:15;;;;;;;22.35;10.32;;;;;;;7.78;100.00;102966.09;5039206;28;20095;-72
2023/12/16 10:12:47;;;;;;;20.02;9.82;;;;;;;7.82;100.00;102959.97;5034810;28;20125;-72
2023/12/16 10:15:29;;;;;;;14.63;9.27;;;;;;;7.76;100.00;102954.66;5010367;28;20152;-71
2023/12/16 10:17:57;;;;;;;14.75;9.35;;;;;;;7.90;100.00;102976.72;5035845;28;20037;-72
2023/12/16 10:20:27;;;;;;;18.33;10.70;;;;;;;7.98;100.00;102977.63;5031364;28;20041;-70
2023/12/16 10:22:58;;;;;;;19.33;11.65;;;;;;;7.99;100.00;102975.88;5031409;28;20140;-72
2023/12/16 10:25:27;;;;;;;20.73;11.68;;;;;;;7.98;100.00;102974.13;5010483;28;20121;-72
2023/12/16 10:28:02;;;;;;;19.63;10.57;;;;;;;8.00;100.00;102975.00;5033677;28;20048;-73
2023/12/16 10:30:32;;;;;;;18.27;10.30;;;;;;;8.04;100.00;102966.22;5028887;28;20510;-72
2023/12/16 10:33:02;;;;;;;19.65;9.93;;;;;;;8.14;100.00;102961.88;5019904;28;20098;-72
2023/12/16 10:35:32;;;;;;;20.42;10.48;;;;;;;8.20;100.00;102962.75;5021537;28;20056;-72
2023/12/16 10:38:02;;;;;;;19.17;9.40;;;;;;;8.27;100.00;102963.69;5013606;28;20387;-71
2023/12/16 10:40:29;;;;;;;17.80;9.70;;;;;;;8.34;100.00;102965.50;5032964;28;20160;-72
2023/12/16 10:42:58;;;;;;;18.77;9.38;;;;;;;8.35;100.00;102964.59;5046205;28;20841;-72
2023/12/16 10:45:28;;;;;;;19.50;10.43;;;;;;;8.33;100.00;102958.47;5024178;28;20061;-71
2023/12/16 10:47:59;;;;;;;16.42;9.35;;;;;;;8.30;100.00;102966.34;5028975;28;20130;-72
2023/12/16 10:50:31;;;;;;;20.08;9.38;;;;;;;8.34;100.00;102953.16;5016547;28;20117;-71
2023/12/16 10:53:03;;;;;;;17.65;9.00;;;;;;;8.36;100.00;102948.78;5012593;28;20056;-71
2023/12/16 10:55:44;;;;;;;15.68;9.13;;;;;;;8.43;100.00;102962.88;5028596;28;20057;-71
2023/12/16 10:58:22;;;;;;;17.15;9.57;;;;;;;8.29;100.00;102957.53;5015639;28;20051;-72
2023/12/16 11:00:53;;;;;;;17.40;9.63;;;;;;;8.09;100.00;102959.22;5013700;28;20054;-71
2023/12/16 11:03:31;;;;;;;15.93;9.07;;;;;;;7.99;100.00;102973.25;5036788;28;20120;-71
2023/12/16 11:06:06;;;;;;;17.55;9.32;;;;;;;7.86;100.00;102974.94;5027992;28;20171;-72
2023/12/16 11:08:36;;;;;;;17.30;8.75;;;;;;;7.84;100.00;102960.88;5034169;28;20076;-71
2023/12/16 11:11:04;;;;;;;16.95;8.43;;;;;;;7.79;100.00;102961.69;5032654;28;20057;-71
2023/12/16 11:13:40;;;;;;;17.10;8.32;;;;;;;7.79;100.00;102959.06;5018735;28;20052;-71
2023/12/16 11:16:18;;;;;;;14.93;8.82;;;;;;;7.88;100.00;102970.53;5040830;28;20049;-71
2023/12/16 11:18:50;;;;;;;15.18;8.20;;;;;;;7.92;100.00;102960.88;5040641;28;20037;-71
2023/12/16 11:21:22;;;;;;;18.30;8.32;;;;;;;7.93;100.00;102960.00;5039036;28;20053;-71